Other Surface Observations
Issued by NWS Missoula, MT

Home | Current Version | Previous Version | Text Only | Print | Product List | Glossary On
Versions: 1 2 3 4 5 6 7 8 9 10 11 12 13 14 15 16 17 18 19 20 21 22 23 24 25 26 27 28 29 30 31 32 33 34 35 36 37 38 39 40 41 42 43 44 45 46 47 48 49 50
906
SXUS55 KMSO 110953
OSOMSO
MONTANA AWOS SUMMARY
NATIONAL WEATHER SERVICE MISSOULA MT
252 AM MST THU FEB 11 2016

Montana AWOS Reports

TWIN BRIDGES|K7S1 110935Z AUTO 12008KT 40SM 04/M04 A3019 RMK AO1 T00441043
ROUNDUP     |KRPX 110935Z AUTO 25017G23KT 40SM 11/M05 A2991 RMK AO1 T01111049




USA.gov is the U.S. government's official web portal to all federal, state and local government web resources and services.